sensor_id;sensor_type;location;lat;lon;timestamp;temperature;humidity
33827;DHT22;20128;45.582;5.298;2023-05-29T00:01:44;20.90;64.20
33827;DHT22;20128;45.582;5.298;2023-05-29T00:04:10;20.70;65.10
33827;DHT22;20128;45.582;5.298;2023-05-29T00:06:37;20.60;65.60
33827;DHT22;20128;45.582;5.298;2023-05-29T00:09:03;20.50;65.60
33827;DHT22;20128;45.582;5.298;2023-05-29T00:11:29;20.60;65.40
33827;DHT22;20128;45.582;5.298;2023-05-29T00:13:55;20.60;65.30
33827;DHT22;20128;45.582;5.298;2023-05-29T00:16:22;20.60;65.30
33827;DHT22;20128;45.582;5.298;2023-05-29T00:18:49;20.40;65.50
33827;DHT22;20128;45.582;5.298;2023-05-29T00:21:15;20.30;66.60
33827;DHT22;20128;45.582;5.298;2023-05-29T00:23:41;20.20;66.10
33827;DHT22;20128;45.582;5.298;2023-05-29T00:26:07;20.10;66.30
33827;DHT22;20128;45.582;5.298;2023-05-29T00:28:35;20.10;66.50
33827;DHT22;20128;45.582;5.298;2023-05-29T00:31:01;20.10;66.30
33827;DHT22;20128;45.582;5.298;2023-05-29T00:33:27;20.10;66.40
33827;DHT22;20128;45.582;5.298;2023-05-29T00:35:53;20.30;66.30
33827;DHT22;20128;45.582;5.298;2023-05-29T00:38:19;20.50;66.10
33827;DHT22;20128;45.582;5.298;2023-05-29T00:40:45;20.70;65.40
33827;DHT22;20128;45.582;5.298;2023-05-29T00:43:10;20.90;64.90
33827;DHT22;20128;45.582;5.298;2023-05-29T00:45:36;21.10;64.70
33827;DHT22;20128;45.582;5.298;2023-05-29T00:48:05;21.30;64.50
33827;DHT22;20128;45.582;5.298;2023-05-29T00:50:32;21.40;64.20
33827;DHT22;20128;45.582;5.298;2023-05-29T00:53:01;21.50;64.50
33827;DHT22;20128;45.582;5.298;2023-05-29T00:55:29;21.60;64.00
33827;DHT22;20128;45.582;5.298;2023-05-29T00:57:55;21.70;64.00
33827;DHT22;20128;45.582;5.298;2023-05-29T01:00:21;21.80;64.10
33827;DHT22;20128;45.582;5.298;2023-05-29T01:02:47;21.80;63.80
33827;DHT22;20128;45.582;5.298;2023-05-29T01:05:13;21.80;63.50
33827;DHT22;20128;45.582;5.298;2023-05-29T01:07:43;21.80;63.30
33827;DHT22;20128;45.582;5.298;2023-05-29T01:10:10;21.80;63.30
33827;DHT22;20128;45.582;5.298;2023-05-29T01:12:58;21.80;63.30
33827;DHT22;20128;45.582;5.298;2023-05-29T01:15:46;21.80;63.10
33827;DHT22;20128;45.582;5.298;2023-05-29T01:28:29;21.40;63.80
33827;DHT22;20128;45.582;5.298;2023-05-29T01:30:57;21.50;64.10
33827;DHT22;20128;45.582;5.298;2023-05-29T01:33:24;21.50;64.10
33827;DHT22;20128;45.582;5.298;2023-05-29T01:35:51;21.60;64.00
33827;DHT22;20128;45.582;5.298;2023-05-29T01:38:17;21.60;63.90
33827;DHT22;20128;45.582;5.298;2023-05-29T01:40:42;21.60;63.70
33827;DHT22;20128;45.582;5.298;2023-05-29T01:43:08;21.60;63.70
33827;DHT22;20128;45.582;5.298;2023-05-29T01:45:36;21.60;63.70
33827;DHT22;20128;45.582;5.298;2023-05-29T01:48:01;21.60;63.80
33827;DHT22;20128;45.582;5.298;2023-05-29T01:50:27;21.60;63.70
33827;DHT22;20128;45.582;5.298;2023-05-29T01:52:54;21.60;63.70
33827;DHT22;20128;45.582;5.298;2023-05-29T01:55:19;21.60;63.80
33827;DHT22;20128;45.582;5.298;2023-05-29T01:57:46;21.60;64.00
33827;DHT22;20128;45.582;5.298;2023-05-29T02:00:12;21.50;63.90
33827;DHT22;20128;45.582;5.298;2023-05-29T02:02:38;21.50;64.10
33827;DHT22;20128;45.582;5.298;2023-05-29T02:05:06;21.50;64.10
33827;DHT22;20128;45.582;5.298;2023-05-29T02:07:32;21.50;64.00
33827;DHT22;20128;45.582;5.298;2023-05-29T02:09:59;21.50;63.90
33827;DHT22;20128;45.582;5.298;2023-05-29T02:12:24;21.30;63.80
33827;DHT22;20128;45.582;5.298;2023-05-29T02:14:50;21.00;64.10
33827;DHT22;20128;45.582;5.298;2023-05-29T02:17:16;20.80;64.50
33827;DHT22;20128;45.582;5.298;2023-05-29T02:19:42;20.60;65.00
33827;DHT22;20128;45.582;5.298;2023-05-29T02:22:07;20.40;65.60
33827;DHT22;20128;45.582;5.298;2023-05-29T02:24:33;20.30;66.30
33827;DHT22;20128;45.582;5.298;2023-05-29T02:26:59;20.40;66.10
33827;DHT22;20128;45.582;5.298;2023-05-29T02:29:24;20.50;66.40
33827;DHT22;20128;45.582;5.298;2023-05-29T02:31:50;20.60;66.10
33827;DHT22;20128;45.582;5.298;2023-05-29T02:34:16;20.70;65.80
33827;DHT22;20128;45.582;5.298;2023-05-29T02:36:41;20.70;66.00
33827;DHT22;20128;45.582;5.298;2023-05-29T02:39:07;20.80;65.60
33827;DHT22;20128;45.582;5.298;2023-05-29T02:41:33;20.80;65.40
33827;DHT22;20128;45.582;5.298;2023-05-29T02:43:58;20.80;65.30
33827;DHT22;20128;45.582;5.298;2023-05-29T02:46:24;20.80;65.50
33827;DHT22;20128;45.582;5.298;2023-05-29T02:48:49;20.80;65.60
33827;DHT22;20128;45.582;5.298;2023-05-29T02:51:15;20.80;65.70
33827;DHT22;20128;45.582;5.298;2023-05-29T02:53:41;20.70;65.50
33827;DHT22;20128;45.582;5.298;2023-05-29T02:56:07;20.70;65.60
33827;DHT22;20128;45.582;5.298;2023-05-29T02:58:37;20.70;65.70
33827;DHT22;20128;45.582;5.298;2023-05-29T03:01:03;20.70;66.20
33827;DHT22;20128;45.582;5.298;2023-05-29T03:03:30;20.80;66.30
33827;DHT22;20128;45.582;5.298;2023-05-29T03:05:55;20.80;66.10
33827;DHT22;20128;45.582;5.298;2023-05-29T03:08:21;20.70;65.80
33827;DHT22;20128;45.582;5.298;2023-05-29T03:10:46;20.70;65.90
33827;DHT22;20128;45.582;5.298;2023-05-29T03:13:13;20.60;65.90
33827;DHT22;20128;45.582;5.298;2023-05-29T03:15:38;20.60;66.10
33827;DHT22;20128;45.582;5.298;2023-05-29T03:18:04;20.50;66.10
33827;DHT22;20128;45.582;5.298;2023-05-29T03:20:30;20.50;66.20
33827;DHT22;20128;45.582;5.298;2023-05-29T03:22:55;20.40;66.30
33827;DHT22;20128;45.582;5.298;2023-05-29T03:25:22;20.40;66.50
33827;DHT22;20128;45.582;5.298;2023-05-29T03:27:48;20.40;66.60
33827;DHT22;20128;45.582;5.298;2023-05-29T03:30:13;20.40;67.60
33827;DHT22;20128;45.582;5.298;2023-05-29T03:32:39;20.40;66.90
33827;DHT22;20128;45.582;5.298;2023-05-29T03:35:06;20.40;67.00
33827;DHT22;20128;45.582;5.298;2023-05-29T03:37:31;20.40;66.80
33827;DHT22;20128;45.582;5.298;2023-05-29T03:39:57;20.30;67.00
33827;DHT22;20128;45.582;5.298;2023-05-29T03:42:23;20.30;67.10
33827;DHT22;20128;45.582;5.298;2023-05-29T03:44:48;20.20;66.90
33827;DHT22;20128;45.582;5.298;2023-05-29T03:47:14;20.10;67.20
33827;DHT22;20128;45.582;5.298;2023-05-29T03:49:39;19.90;67.30
33827;DHT22;20128;45.582;5.298;2023-05-29T03:52:05;19.50;68.10
33827;DHT22;20128;45.582;5.298;2023-05-29T03:54:31;19.40;68.80
33827;DHT22;20128;45.582;5.298;2023-05-29T03:56:57;19.50;69.20
33827;DHT22;20128;45.582;5.298;2023-05-29T03:59:23;19.60;69.20
33827;DHT22;20128;45.582;5.298;2023-05-29T04:01:48;19.60;68.80
33827;DHT22;20128;45.582;5.298;2023-05-29T04:04:14;19.50;68.80
33827;DHT22;20128;45.582;5.298;2023-05-29T04:06:40;19.40;69.00
33827;DHT22;20128;45.582;5.298;2023-05-29T04:09:05;19.40;69.40
33827;DHT22;20128;45.582;5.298;2023-05-29T04:11:34;19.40;69.40
33827;DHT22;20128;45.582;5.298;2023-05-29T04:14:01;19.50;69.40
33827;DHT22;20128;45.582;5.298;2023-05-29T04:16:27;19.50;69.10
33827;DHT22;20128;45.582;5.298;2023-05-29T04:18:54;19.50;69.30
33827;DHT22;20128;45.582;5.298;2023-05-29T04:21:20;19.50;69.10
33827;DHT22;20128;45.582;5.298;2023-05-29T04:23:46;19.50;69.60
33827;DHT22;20128;45.582;5.298;2023-05-29T04:26:12;19.60;69.30
33827;DHT22;20128;45.582;5.298;2023-05-29T04:28:38;19.70;69.30
33827;DHT22;20128;45.582;5.298;2023-05-29T04:31:04;19.70;68.90
33827;DHT22;20128;45.582;5.298;2023-05-29T04:33:31;19.70;68.90
33827;DHT22;20128;45.582;5.298;2023-05-29T04:35:57;19.70;68.80
33827;DHT22;20128;45.582;5.298;2023-05-29T04:38:26;19.80;69.40
33827;DHT22;20128;45.582;5.298;2023-05-29T04:40:53;19.80;69.30
33827;DHT22;20128;45.582;5.298;2023-05-29T04:43:23;19.90;69.10
33827;DHT22;20128;45.582;5.298;2023-05-29T04:45:52;19.90;68.60
33827;DHT22;20128;45.582;5.298;2023-05-29T04:48:18;19.80;68.40
33827;DHT22;20128;45.582;5.298;2023-05-29T04:50:43;19.90;68.60
33827;DHT22;20128;45.582;5.298;2023-05-29T04:53:10;19.90;68.60
33827;DHT22;20128;45.582;5.298;2023-05-29T04:55:36;19.90;68.60
33827;DHT22;20128;45.582;5.298;2023-05-29T04:58:02;19.70;68.60
33827;DHT22;20128;45.582;5.298;2023-05-29T05:00:27;19.60;68.90
33827;DHT22;20128;45.582;5.298;2023-05-29T05:02:53;19.40;69.30
33827;DHT22;20128;45.582;5.298;2023-05-29T05:05:19;19.40;70.20
33827;DHT22;20128;45.582;5.298;2023-05-29T05:07:45;19.40;69.90
33827;DHT22;20128;45.582;5.298;2023-05-29T05:10:11;19.40;69.70
33827;DHT22;20128;45.582;5.298;2023-05-29T05:12:37;19.40;69.90
33827;DHT22;20128;45.582;5.298;2023-05-29T05:15:03;19.40;70.00
33827;DHT22;20128;45.582;5.298;2023-05-29T05:17:29;19.40;70.00
33827;DHT22;20128;45.582;5.298;2023-05-29T05:19:54;19.30;70.20
33827;DHT22;20128;45.582;5.298;2023-05-29T05:22:20;19.30;70.50
33827;DHT22;20128;45.582;5.298;2023-05-29T05:24:46;19.40;70.60
33827;DHT22;20128;45.582;5.298;2023-05-29T05:27:13;19.40;70.60
33827;DHT22;20128;45.582;5.298;2023-05-29T05:29:38;19.50;70.60
33827;DHT22;20128;45.582;5.298;2023-05-29T05:32:04;19.50;70.70
33827;DHT22;20128;45.582;5.298;2023-05-29T05:34:30;19.60;70.50
33827;DHT22;20128;45.582;5.298;2023-05-29T05:36:55;19.70;70.40
33827;DHT22;20128;45.582;5.298;2023-05-29T05:39:21;19.70;70.40
33827;DHT22;20128;45.582;5.298;2023-05-29T05:41:47;19.70;70.40
33827;DHT22;20128;45.582;5.298;2023-05-29T05:44:13;19.80;70.30
33827;DHT22;20128;45.582;5.298;2023-05-29T05:46:38;19.80;70.40
33827;DHT22;20128;45.582;5.298;2023-05-29T05:49:04;19.90;70.40
33827;DHT22;20128;45.582;5.298;2023-05-29T05:51:30;19.90;70.30
33827;DHT22;20128;45.582;5.298;2023-05-29T05:53:56;19.90;70.40
33827;DHT22;20128;45.582;5.298;2023-05-29T05:56:21;20.00;70.60
33827;DHT22;20128;45.582;5.298;2023-05-29T05:58:47;20.10;70.50
33827;DHT22;20128;45.582;5.298;2023-05-29T06:01:15;20.20;70.20
33827;DHT22;20128;45.582;5.298;2023-05-29T06:03:40;20.20;70.00
33827;DHT22;20128;45.582;5.298;2023-05-29T06:06:06;20.10;70.30
33827;DHT22;20128;45.582;5.298;2023-05-29T06:08:33;20.20;70.40
33827;DHT22;20128;45.582;5.298;2023-05-29T06:10:59;20.20;70.50
33827;DHT22;20128;45.582;5.298;2023-05-29T06:13:25;20.20;70.60
33827;DHT22;20128;45.582;5.298;2023-05-29T06:15:51;20.20;70.60
33827;DHT22;20128;45.582;5.298;2023-05-29T06:18:17;20.20;71.10
33827;DHT22;20128;45.582;5.298;2023-05-29T06:20:42;20.20;70.60
33827;DHT22;20128;45.582;5.298;2023-05-29T06:23:08;20.20;70.80
33827;DHT22;20128;45.582;5.298;2023-05-29T06:25:34;20.20;70.80
33827;DHT22;20128;45.582;5.298;2023-05-29T06:28:00;20.20;71.00
33827;DHT22;20128;45.582;5.298;2023-05-29T06:30:26;20.30;70.80
33827;DHT22;20128;45.582;5.298;2023-05-29T06:32:52;20.40;70.60
33827;DHT22;20128;45.582;5.298;2023-05-29T06:35:18;20.40;70.50
33827;DHT22;20128;45.582;5.298;2023-05-29T06:37:45;20.50;70.30
33827;DHT22;20128;45.582;5.298;2023-05-29T06:40:11;20.60;70.10
33827;DHT22;20128;45.582;5.298;2023-05-29T06:42:37;20.60;69.80
33827;DHT22;20128;45.582;5.298;2023-05-29T06:45:03;20.70;69.80
33827;DHT22;20128;45.582;5.298;2023-05-29T06:47:29;20.70;69.80
33827;DHT22;20128;45.582;5.298;2023-05-29T06:49:54;20.70;69.50
33827;DHT22;20128;45.582;5.298;2023-05-29T06:52:20;20.80;69.40
33827;DHT22;20128;45.582;5.298;2023-05-29T06:54:45;20.90;69.40
33827;DHT22;20128;45.582;5.298;2023-05-29T06:57:11;20.90;69.60
33827;DHT22;20128;45.582;5.298;2023-05-29T06:59:37;20.90;69.40
33827;DHT22;20128;45.582;5.298;2023-05-29T07:02:03;20.90;69.50
33827;DHT22;20128;45.582;5.298;2023-05-29T07:04:29;21.00;69.50
33827;DHT22;20128;45.582;5.298;2023-05-29T07:06:54;21.10;69.50
33827;DHT22;20128;45.582;5.298;2023-05-29T07:09:20;21.20;69.50
33827;DHT22;20128;45.582;5.298;2023-05-29T07:11:46;21.30;69.40
33827;DHT22;20128;45.582;5.298;2023-05-29T07:14:11;21.40;69.30
33827;DHT22;20128;45.582;5.298;2023-05-29T07:16:37;21.50;69.20
33827;DHT22;20128;45.582;5.298;2023-05-29T07:19:03;21.60;68.90
33827;DHT22;20128;45.582;5.298;2023-05-29T07:21:29;21.70;68.40
33827;DHT22;20128;45.582;5.298;2023-05-29T07:23:54;21.80;68.10
33827;DHT22;20128;45.582;5.298;2023-05-29T07:26:20;21.90;67.90
33827;DHT22;20128;45.582;5.298;2023-05-29T07:28:48;21.90;67.50
33827;DHT22;20128;45.582;5.298;2023-05-29T07:31:14;22.00;66.70
33827;DHT22;20128;45.582;5.298;2023-05-29T07:33:40;22.00;66.30
33827;DHT22;20128;45.582;5.298;2023-05-29T07:36:06;22.00;66.40
33827;DHT22;20128;45.582;5.298;2023-05-29T07:38:33;22.00;66.30
33827;DHT22;20128;45.582;5.298;2023-05-29T07:40:59;22.10;66.20
33827;DHT22;20128;45.582;5.298;2023-05-29T07:43:24;22.10;66.40
33827;DHT22;20128;45.582;5.298;2023-05-29T07:45:50;22.10;66.60
33827;DHT22;20128;45.582;5.298;2023-05-29T07:48:15;22.10;65.50
33827;DHT22;20128;45.582;5.298;2023-05-29T07:50:41;22.10;65.80
33827;DHT22;20128;45.582;5.298;2023-05-29T07:53:07;22.20;65.60
33827;DHT22;20128;45.582;5.298;2023-05-29T07:55:34;22.20;65.70
33827;DHT22;20128;45.582;5.298;2023-05-29T07:58:00;22.20;65.90
33827;DHT22;20128;45.582;5.298;2023-05-29T08:00:27;22.30;65.80
33827;DHT22;20128;45.582;5.298;2023-05-29T08:02:54;22.40;65.60
33827;DHT22;20128;45.582;5.298;2023-05-29T08:05:19;22.60;65.60
33827;DHT22;20128;45.582;5.298;2023-05-29T08:07:45;22.70;64.90
33827;DHT22;20128;45.582;5.298;2023-05-29T08:10:12;22.80;64.60
33827;DHT22;20128;45.582;5.298;2023-05-29T08:12:38;22.90;64.70
33827;DHT22;20128;45.582;5.298;2023-05-29T08:15:03;23.00;64.60
33827;DHT22;20128;45.582;5.298;2023-05-29T08:17:29;23.10;64.50
33827;DHT22;20128;45.582;5.298;2023-05-29T08:19:55;23.10;63.50
33827;DHT22;20128;45.582;5.298;2023-05-29T08:22:28;23.20;63.60
33827;DHT22;20128;45.582;5.298;2023-05-29T08:24:54;23.20;62.90
33827;DHT22;20128;45.582;5.298;2023-05-29T08:27:19;23.20;62.90
33827;DHT22;20128;45.582;5.298;2023-05-29T08:29:45;23.30;63.10
33827;DHT22;20128;45.582;5.298;2023-05-29T08:32:11;23.30;63.10
33827;DHT22;20128;45.582;5.298;2023-05-29T08:34:36;23.40;63.20
33827;DHT22;20128;45.582;5.298;2023-05-29T08:37:02;23.50;63.20
33827;DHT22;20128;45.582;5.298;2023-05-29T08:39:28;23.60;63.20
33827;DHT22;20128;45.582;5.298;2023-05-29T08:42:04;23.80;62.90
33827;DHT22;20128;45.582;5.298;2023-05-29T08:44:32;23.90;62.20
33827;DHT22;20128;45.582;5.298;2023-05-29T08:47:01;24.00;61.80
33827;DHT22;20128;45.582;5.298;2023-05-29T08:49:29;24.10;61.60
33827;DHT22;20128;45.582;5.298;2023-05-29T08:52:18;24.20;61.30
33827;DHT22;20128;45.582;5.298;2023-05-29T08:54:44;24.30;60.90
33827;DHT22;20128;45.582;5.298;2023-05-29T08:57:11;24.40;60.50
33827;DHT22;20128;45.582;5.298;2023-05-29T08:59:40;24.50;60.40
33827;DHT22;20128;45.582;5.298;2023-05-29T09:02:07;24.60;60.10
33827;DHT22;20128;45.582;5.298;2023-05-29T09:04:33;24.70;59.60
33827;DHT22;20128;45.582;5.298;2023-05-29T09:06:59;24.70;59.40
33827;DHT22;20128;45.582;5.298;2023-05-29T09:09:26;24.80;59.30
33827;DHT22;20128;45.582;5.298;2023-05-29T09:11:55;24.90;58.50
33827;DHT22;20128;45.582;5.298;2023-05-29T09:14:41;25.00;58.50
33827;DHT22;20128;45.582;5.298;2023-05-29T09:17:09;25.10;57.90
33827;DHT22;20128;45.582;5.298;2023-05-29T09:19:35;25.20;57.20
33827;DHT22;20128;45.582;5.298;2023-05-29T09:22:02;25.20;57.20
33827;DHT22;20128;45.582;5.298;2023-05-29T09:24:29;25.30;57.40
33827;DHT22;20128;45.582;5.298;2023-05-29T09:26:56;25.40;56.60
33827;DHT22;20128;45.582;5.298;2023-05-29T09:29:24;25.40;55.50
33827;DHT22;20128;45.582;5.298;2023-05-29T09:31:50;25.40;55.40
33827;DHT22;20128;45.582;5.298;2023-05-29T09:34:16;25.30;55.70
33827;DHT22;20128;45.582;5.298;2023-05-29T09:36:41;25.30;55.90
33827;DHT22;20128;45.582;5.298;2023-05-29T09:39:07;25.40;56.00
33827;DHT22;20128;45.582;5.298;2023-05-29T09:41:44;25.60;55.90
33827;DHT22;20128;45.582;5.298;2023-05-29T09:44:13;25.70;55.20
33827;DHT22;20128;45.582;5.298;2023-05-29T09:46:42;25.90;54.70
33827;DHT22;20128;45.582;5.298;2023-05-29T09:49:11;26.00;53.90
33827;DHT22;20128;45.582;5.298;2023-05-29T09:51:37;26.10;53.40
33827;DHT22;20128;45.582;5.298;2023-05-29T09:54:18;26.10;52.80
33827;DHT22;20128;45.582;5.298;2023-05-29T09:56:45;26.20;53.20
33827;DHT22;20128;45.582;5.298;2023-05-29T09:59:12;26.30;53.10
33827;DHT22;20128;45.582;5.298;2023-05-29T10:01:42;26.40;53.00
33827;DHT22;20128;45.582;5.298;2023-05-29T10:04:10;26.50;52.50
33827;DHT22;20128;45.582;5.298;2023-05-29T10:06:41;26.60;52.30
33827;DHT22;20128;45.582;5.298;2023-05-29T10:09:09;26.70;52.00
33827;DHT22;20128;45.582;5.298;2023-05-29T10:11:38;26.80;51.90
33827;DHT22;20128;45.582;5.298;2023-05-29T10:14:07;26.90;51.50
33827;DHT22;20128;45.582;5.298;2023-05-29T10:16:37;27.00;50.00
33827;DHT22;20128;45.582;5.298;2023-05-29T10:19:12;27.00;50.60
33827;DHT22;20128;45.582;5.298;2023-05-29T10:21:40;27.10;50.30
33827;DHT22;20128;45.582;5.298;2023-05-29T10:24:07;27.20;50.40
33827;DHT22;20128;45.582;5.298;2023-05-29T10:26:37;27.10;49.00
33827;DHT22;20128;45.582;5.298;2023-05-29T10:35:01;27.30;49.60
33827;DHT22;20128;45.582;5.298;2023-05-29T10:37:42;27.20;50.10
33827;DHT22;20128;45.582;5.298;2023-05-29T10:40:10;27.20;50.30
33827;DHT22;20128;45.582;5.298;2023-05-29T10:42:47;27.40;49.70
33827;DHT22;20128;45.582;5.298;2023-05-29T10:50:44;27.80;50.30
33827;DHT22;20128;45.582;5.298;2023-05-29T10:53:14;27.90;50.30
33827;DHT22;20128;45.582;5.298;2023-05-29T10:55:41;27.90;50.10
33827;DHT22;20128;45.582;5.298;2023-05-29T10:58:07;28.00;50.50
33827;DHT22;20128;45.582;5.298;2023-05-29T11:00:33;28.00;50.20
33827;DHT22;20128;45.582;5.298;2023-05-29T11:03:03;28.10;50.00
33827;DHT22;20128;45.582;5.298;2023-05-29T11:05:29;28.10;50.50
33827;DHT22;20128;45.582;5.298;2023-05-29T11:07:59;28.20;50.40
33827;DHT22;20128;45.582;5.298;2023-05-29T11:10:45;28.20;50.20
33827;DHT22;20128;45.582;5.298;2023-05-29T11:13:25;28.10;50.10
33827;DHT22;20128;45.582;5.298;2023-05-29T11:16:10;28.00;50.50
33827;DHT22;20128;45.582;5.298;2023-05-29T11:18:47;28.00;50.40
33827;DHT22;20128;45.582;5.298;2023-05-29T11:23:53;28.20;49.80
33827;DHT22;20128;45.582;5.298;2023-05-29T11:26:21;28.30;49.70
33827;DHT22;20128;45.582;5.298;2023-05-29T11:28:47;28.40;49.70
33827;DHT22;20128;45.582;5.298;2023-05-29T11:31:13;28.50;49.90
33827;DHT22;20128;45.582;5.298;2023-05-29T11:33:40;28.60;48.40
33827;DHT22;20128;45.582;5.298;2023-05-29T11:36:09;28.70;47.50
33827;DHT22;20128;45.582;5.298;2023-05-29T11:38:36;28.80;46.80
33827;DHT22;20128;45.582;5.298;2023-05-29T11:41:01;29.00;46.10
33827;DHT22;20128;45.582;5.298;2023-05-29T11:43:28;29.00;45.90
33827;DHT22;20128;45.582;5.298;2023-05-29T11:45:54;29.10;46.20
33827;DHT22;20128;45.582;5.298;2023-05-29T11:48:20;29.10;46.00
33827;DHT22;20128;45.582;5.298;2023-05-29T11:50:47;29.20;46.00
33827;DHT22;20128;45.582;5.298;2023-05-29T11:53:12;29.20;46.30
33827;DHT22;20128;45.582;5.298;2023-05-29T11:55:38;29.30;46.60
33827;DHT22;20128;45.582;5.298;2023-05-29T11:58:04;29.30;46.80
33827;DHT22;20128;45.582;5.298;2023-05-29T12:00:33;29.30;46.60
33827;DHT22;20128;45.582;5.298;2023-05-29T12:03:00;29.30;46.40
33827;DHT22;20128;45.582;5.298;2023-05-29T12:05:31;29.40;46.30
33827;DHT22;20128;45.582;5.298;2023-05-29T12:07:57;29.50;46.30
33827;DHT22;20128;45.582;5.298;2023-05-29T12:10:23;29.50;46.20
33827;DHT22;20128;45.582;5.298;2023-05-29T12:12:54;29.50;46.20
33827;DHT22;20128;45.582;5.298;2023-05-29T12:15:20;29.60;45.40
33827;DHT22;20128;45.582;5.298;2023-05-29T12:17:48;29.70;45.90
33827;DHT22;20128;45.582;5.298;2023-05-29T12:20:14;29.80;45.70
33827;DHT22;20128;45.582;5.298;2023-05-29T12:22:41;29.80;46.40
33827;DHT22;20128;45.582;5.298;2023-05-29T12:27:45;29.90;45.60
33827;DHT22;20128;45.582;5.298;2023-05-29T12:30:19;29.90;45.40
33827;DHT22;20128;45.582;5.298;2023-05-29T12:32:48;29.80;45.50
33827;DHT22;20128;45.582;5.298;2023-05-29T12:35:23;29.80;45.50
33827;DHT22;20128;45.582;5.298;2023-05-29T12:37:57;29.80;45.60
33827;DHT22;20128;45.582;5.298;2023-05-29T12:40:24;29.80;45.90
33827;DHT22;20128;45.582;5.298;2023-05-29T12:43:01;29.80;45.60
33827;DHT22;20128;45.582;5.298;2023-05-29T12:45:29;29.80;45.80
33827;DHT22;20128;45.582;5.298;2023-05-29T12:47:59;29.90;46.10
33827;DHT22;20128;45.582;5.298;2023-05-29T12:50:29;29.90;45.50
33827;DHT22;20128;45.582;5.298;2023-05-29T12:53:02;29.90;45.60
33827;DHT22;20128;45.582;5.298;2023-05-29T12:55:29;30.00;45.70
33827;DHT22;20128;45.582;5.298;2023-05-29T12:57:56;30.00;45.20
33827;DHT22;20128;45.582;5.298;2023-05-29T13:00:24;30.00;45.00
33827;DHT22;20128;45.582;5.298;2023-05-29T13:02:51;30.00;45.20
33827;DHT22;20128;45.582;5.298;2023-05-29T13:05:17;30.00;45.40
33827;DHT22;20128;45.582;5.298;2023-05-29T13:07:45;30.00;45.10
33827;DHT22;20128;45.582;5.298;2023-05-29T13:10:11;30.10;45.70
33827;DHT22;20128;45.582;5.298;2023-05-29T13:12:37;30.20;45.60
33827;DHT22;20128;45.582;5.298;2023-05-29T13:15:03;30.20;45.90
33827;DHT22;20128;45.582;5.298;2023-05-29T13:17:29;30.30;45.90
33827;DHT22;20128;45.582;5.298;2023-05-29T13:19:55;30.30;45.90
33827;DHT22;20128;45.582;5.298;2023-05-29T13:22:20;30.30;45.80
33827;DHT22;20128;45.582;5.298;2023-05-29T13:24:46;30.10;45.50
33827;DHT22;20128;45.582;5.298;2023-05-29T13:27:11;30.20;45.70
33827;DHT22;20128;45.582;5.298;2023-05-29T13:29:42;30.20;46.20
33827;DHT22;20128;45.582;5.298;2023-05-29T13:32:08;30.10;46.20
33827;DHT22;20128;45.582;5.298;2023-05-29T13:34:34;30.10;46.50
33827;DHT22;20128;45.582;5.298;2023-05-29T13:37:00;30.20;46.60
33827;DHT22;20128;45.582;5.298;2023-05-29T13:39:28;30.30;46.50
33827;DHT22;20128;45.582;5.298;2023-05-29T13:41:53;30.40;46.60
33827;DHT22;20128;45.582;5.298;2023-05-29T13:44:19;30.40;46.70
33827;DHT22;20128;45.582;5.298;2023-05-29T13:46:44;30.40;46.60
33827;DHT22;20128;45.582;5.298;2023-05-29T13:49:10;30.30;46.70
33827;DHT22;20128;45.582;5.298;2023-05-29T13:51:36;30.30;47.10
33827;DHT22;20128;45.582;5.298;2023-05-29T13:54:02;30.30;47.20
33827;DHT22;20128;45.582;5.298;2023-05-29T13:56:29;30.50;47.00
33827;DHT22;20128;45.582;5.298;2023-05-29T13:58:55;30.60;46.60
33827;DHT22;20128;45.582;5.298;2023-05-29T14:01:20;30.60;46.20
33827;DHT22;20128;45.582;5.298;2023-05-29T14:03:47;30.50;46.50
33827;DHT22;20128;45.582;5.298;2023-05-29T14:06:12;30.40;46.80
33827;DHT22;20128;45.582;5.298;2023-05-29T14:08:38;30.40;47.10
33827;DHT22;20128;45.582;5.298;2023-05-29T14:11:05;30.40;47.20
33827;DHT22;20128;45.582;5.298;2023-05-29T14:13:31;30.50;47.00
33827;DHT22;20128;45.582;5.298;2023-05-29T14:15:56;30.60;46.90
33827;DHT22;20128;45.582;5.298;2023-05-29T14:18:23;30.60;46.80
33827;DHT22;20128;45.582;5.298;2023-05-29T14:20:49;30.70;46.90
33827;DHT22;20128;45.582;5.298;2023-05-29T14:23:17;30.70;46.70
33827;DHT22;20128;45.582;5.298;2023-05-29T14:25:43;30.60;46.80
33827;DHT22;20128;45.582;5.298;2023-05-29T14:28:09;30.50;46.90
33827;DHT22;20128;45.582;5.298;2023-05-29T14:30:36;30.60;46.50
33827;DHT22;20128;45.582;5.298;2023-05-29T14:33:02;30.60;46.70
33827;DHT22;20128;45.582;5.298;2023-05-29T14:35:27;30.60;46.90
33827;DHT22;20128;45.582;5.298;2023-05-29T14:37:53;30.70;46.70
33827;DHT22;20128;45.582;5.298;2023-05-29T14:40:18;30.80;46.80
33827;DHT22;20128;45.582;5.298;2023-05-29T14:42:44;30.90;46.40
33827;DHT22;20128;45.582;5.298;2023-05-29T14:45:10;30.90;46.10
33827;DHT22;20128;45.582;5.298;2023-05-29T14:47:36;30.90;45.90
33827;DHT22;20128;45.582;5.298;2023-05-29T14:50:02;30.90;46.30
33827;DHT22;20128;45.582;5.298;2023-05-29T14:52:27;31.00;46.10
33827;DHT22;20128;45.582;5.298;2023-05-29T14:54:53;31.10;46.30
33827;DHT22;20128;45.582;5.298;2023-05-29T14:57:19;31.10;45.80
33827;DHT22;20128;45.582;5.298;2023-05-29T14:59:45;31.10;45.90
33827;DHT22;20128;45.582;5.298;2023-05-29T15:02:10;31.20;45.90
33827;DHT22;20128;45.582;5.298;2023-05-29T15:04:36;31.30;45.90
33827;DHT22;20128;45.582;5.298;2023-05-29T15:07:02;31.30;45.20
33827;DHT22;20128;45.582;5.298;2023-05-29T15:09:28;31.20;45.40
33827;DHT22;20128;45.582;5.298;2023-05-29T15:11:54;31.20;45.40
33827;DHT22;20128;45.582;5.298;2023-05-29T15:14:19;31.20;45.60
33827;DHT22;20128;45.582;5.298;2023-05-29T15:16:45;31.20;45.70
33827;DHT22;20128;45.582;5.298;2023-05-29T15:19:11;31.30;45.50
33827;DHT22;20128;45.582;5.298;2023-05-29T15:21:37;31.20;45.60
33827;DHT22;20128;45.582;5.298;2023-05-29T15:24:03;31.30;45.40
33827;DHT22;20128;45.582;5.298;2023-05-29T15:26:28;31.30;45.10
33827;DHT22;20128;45.582;5.298;2023-05-29T15:28:54;31.30;45.00
33827;DHT22;20128;45.582;5.298;2023-05-29T15:31:20;31.20;45.10
33827;DHT22;20128;45.582;5.298;2023-05-29T15:33:48;31.10;45.00
33827;DHT22;20128;45.582;5.298;2023-05-29T15:36:14;31.20;45.30
33827;DHT22;20128;45.582;5.298;2023-05-29T15:38:41;31.20;45.30
33827;DHT22;20128;45.582;5.298;2023-05-29T15:41:07;31.00;45.20
33827;DHT22;20128;45.582;5.298;2023-05-29T15:43:33;30.90;45.30
33827;DHT22;20128;45.582;5.298;2023-05-29T15:45:59;30.90;45.60
33827;DHT22;20128;45.582;5.298;2023-05-29T15:48:24;30.90;45.30
33827;DHT22;20128;45.582;5.298;2023-05-29T15:50:50;30.90;45.20
33827;DHT22;20128;45.582;5.298;2023-05-29T15:53:15;30.90;46.00
33827;DHT22;20128;45.582;5.298;2023-05-29T15:55:41;30.90;45.30